createdAt,value
2018-03-03T00:00:22.018Z,64.57
2018-03-03T00:02:49.800Z,60.53
2018-03-03T00:05:18.316Z,67.80
2018-03-03T00:07:46.097Z,64.50
2018-03-03T00:10:13.885Z,65.60
2018-03-03T00:12:41.622Z,65.37
2018-03-03T00:15:09.402Z,64.90
2018-03-03T00:17:37.189Z,67.40
2018-03-03T00:20:04.927Z,66.53
2018-03-03T00:22:41.476Z,64.07
2018-03-03T00:25:09.227Z,67.63
2018-03-03T00:27:37.019Z,69.83
2018-03-03T00:30:04.769Z,64.07
2018-03-03T00:32:32.557Z,62.53
2018-03-03T00:35:00.403Z,67.77
2018-03-03T00:37:28.152Z,58.63
2018-03-03T00:39:55.927Z,62.87
2018-03-03T00:42:23.693Z,56.23
2018-03-03T00:44:51.428Z,67.23
2018-03-03T00:47:19.147Z,61.83
2018-03-03T00:49:46.898Z,60.10
2018-03-03T00:52:14.632Z,55.90
2018-03-03T00:54:42.422Z,62.80
2018-03-03T00:57:10.180Z,57.47
2018-03-03T00:59:37.911Z,57.53
2018-03-03T01:02:05.720Z,55.63
2018-03-03T01:04:33.530Z,58.53
2018-03-03T01:07:02.069Z,54.00
2018-03-03T01:09:29.798Z,52.93
2018-03-03T01:11:57.605Z,58.00
2018-03-03T01:14:25.332Z,56.17
2018-03-03T01:16:53.103Z,56.10
2018-03-03T01:19:20.818Z,60.20
2018-03-03T01:21:48.620Z,56.23
2018-03-03T01:24:16.359Z,61.23
2018-03-03T01:26:44.088Z,48.30
2018-03-03T01:29:11.903Z,61.83
2018-03-03T01:31:39.702Z,49.50
2018-03-03T01:34:07.442Z,54.53
2018-03-03T01:36:35.233Z,56.83
2018-03-03T01:39:03.032Z,54.10
2018-03-03T01:41:30.816Z,55.00
2018-03-03T01:43:58.606Z,55.93
2018-03-03T01:46:26.398Z,52.73
2018-03-03T01:48:54.133Z,53.70
2018-03-03T01:51:33.634Z,54.93
2018-03-03T01:54:01.383Z,52.00
2018-03-03T01:56:29.159Z,55.73
2018-03-03T01:58:56.900Z,52.33
2018-03-03T02:01:24.637Z,57.43
2018-03-03T02:03:52.411Z,53.50
2018-03-03T02:06:20.208Z,55.87
2018-03-03T02:08:47.982Z,51.20
2018-03-03T02:11:15.754Z,50.60
2018-03-03T02:13:43.549Z,48.37
2018-03-03T02:16:11.283Z,51.63
2018-03-03T02:18:39.008Z,49.30
2018-03-03T02:21:06.757Z,54.17
2018-03-03T02:23:34.525Z,54.43
2018-03-03T02:26:02.262Z,53.13
2018-03-03T02:28:29.996Z,56.20
2018-03-03T02:30:57.776Z,56.13
2018-03-03T02:33:25.571Z,56.00
2018-03-03T02:35:53.364Z,58.80
2018-03-03T02:38:21.145Z,52.47
2018-03-03T02:40:48.919Z,48.10
2018-03-03T02:43:16.672Z,52.97
2018-03-03T02:45:44.466Z,54.07
2018-03-03T02:48:12.187Z,51.37
2018-03-03T02:50:39.920Z,58.17
2018-03-03T02:53:07.700Z,51.40
2018-03-03T02:55:35.444Z,52.97
2018-03-03T02:58:03.188Z,59.83
2018-03-03T03:00:30.967Z,50.40
2018-03-03T03:02:58.712Z,56.50
2018-03-03T03:05:26.483Z,53.73
2018-03-03T03:07:54.205Z,53.40
2018-03-03T03:10:21.948Z,55.00
2018-03-03T03:12:49.746Z,55.33
2018-03-03T03:15:17.514Z,55.30
2018-03-03T03:17:45.315Z,52.50
2018-03-03T03:20:13.118Z,53.10
2018-03-03T03:22:40.905Z,52.30
2018-03-03T03:25:08.688Z,48.90
2018-03-03T03:27:36.526Z,52.30
2018-03-03T03:30:04.270Z,53.50
2018-03-03T03:32:32.010Z,56.33
2018-03-03T03:34:59.783Z,44.30
2018-03-03T03:37:28.253Z,54.93
2018-03-03T03:39:56.001Z,48.03
2018-03-03T03:42:23.790Z,48.13
2018-03-03T03:44:51.527Z,52.83
2018-03-03T03:47:19.326Z,48.13
2018-03-03T03:49:47.103Z,50.77
2018-03-03T03:52:15.635Z,48.70
2018-03-03T03:54:43.368Z,49.53
2018-03-03T03:57:11.163Z,48.57
2018-03-03T03:59:38.977Z,46.27
2018-03-03T04:02:07.446Z,45.47
2018-03-03T04:04:35.184Z,45.43
2018-03-03T04:07:02.931Z,44.80
2018-03-03T04:09:30.688Z,47.97
2018-03-03T04:11:58.492Z,57.83
2018-03-03T04:14:26.315Z,47.70
2018-03-03T04:16:54.892Z,48.43
2018-03-03T04:19:22.679Z,45.33
2018-03-03T04:21:50.484Z,51.50
2018-03-03T04:24:18.298Z,46.37
2018-03-03T04:26:46.910Z,51.53
2018-03-03T04:29:14.648Z,47.90
2018-03-03T04:31:42.375Z,41.63
2018-03-03T04:34:10.154Z,42.77
2018-03-03T04:36:37.880Z,40.27
2018-03-03T04:39:05.672Z,45.83
2018-03-03T04:41:33.413Z,42.50
2018-03-03T04:44:01.146Z,41.10
2018-03-03T04:46:28.918Z,41.17
2018-03-03T04:48:56.703Z,40.30
2018-03-03T04:51:24.463Z,40.73
2018-03-03T04:53:52.228Z,37.70
2018-03-03T04:56:20.046Z,38.73
2018-03-03T04:58:52.414Z,43.57
2018-03-03T05:01:23.024Z,35.57
2018-03-03T05:03:53.343Z,32.20
2018-03-03T05:19:52.525Z,39.50
2018-03-03T05:22:35.178Z,37.07
2018-03-03T05:38:50.113Z,32.60
2018-03-03T05:41:23.459Z,30.07
2018-03-03T05:57:30.150Z,33.53
2018-03-03T06:00:03.491Z,28.67
2018-03-03T06:02:37.885Z,35.60
2018-03-03T06:05:11.200Z,34.00
2018-03-03T06:21:01.201Z,41.60
2018-03-03T06:23:29.082Z,38.93
2018-03-03T06:25:56.840Z,41.23
2018-03-03T06:28:24.567Z,43.87
2018-03-03T06:30:52.297Z,41.40
2018-03-03T06:33:20.051Z,37.57
2018-03-03T06:35:47.842Z,42.00
2018-03-03T06:38:15.582Z,40.67
2018-03-03T06:40:43.316Z,41.90
2018-03-03T06:43:11.104Z,42.10
2018-03-03T06:45:38.902Z,44.43
2018-03-03T06:48:06.674Z,43.20
2018-03-03T06:50:34.509Z,40.73
2018-03-03T06:53:02.287Z,43.37
2018-03-03T06:55:31.045Z,47.00
2018-03-03T06:57:58.838Z,46.30
2018-03-03T07:00:26.612Z,41.40
2018-03-03T07:02:54.336Z,42.67
2018-03-03T07:05:22.837Z,46.23
2018-03-03T07:07:50.653Z,49.87
2018-03-03T07:10:18.468Z,50.50
2018-03-03T07:12:46.273Z,47.53
2018-03-03T07:15:25.749Z,49.90
2018-03-03T07:17:53.571Z,48.77
2018-03-03T07:20:21.337Z,52.03
2018-03-03T07:22:49.098Z,56.33
2018-03-03T07:25:16.851Z,48.60
2018-03-03T07:27:44.641Z,45.17
2018-03-03T07:30:12.410Z,48.30
2018-03-03T07:32:40.187Z,45.53
2018-03-03T07:35:07.975Z,46.67
2018-03-03T07:37:35.762Z,53.50
2018-03-03T07:40:03.496Z,52.43
2018-03-03T07:42:31.287Z,50.00
2018-03-03T07:44:59.804Z,55.03
2018-03-03T07:47:28.302Z,49.90
2018-03-03T07:49:56.078Z,52.00
2018-03-03T07:52:23.794Z,53.70
2018-03-03T07:54:51.574Z,51.63
2018-03-03T07:57:20.167Z,56.97
2018-03-03T07:59:47.905Z,53.07
2018-03-03T08:02:15.731Z,52.10
2018-03-03T08:04:43.561Z,58.03
2018-03-03T08:07:12.107Z,54.87
2018-03-03T08:09:39.919Z,59.77
2018-03-03T08:12:07.690Z,56.13
2018-03-03T08:14:35.506Z,62.87
2018-03-03T08:17:03.403Z,57.43
2018-03-03T08:19:31.298Z,57.80
2018-03-03T08:21:59.058Z,56.77
2018-03-03T08:24:26.814Z,54.10
2018-03-03T08:26:54.593Z,58.97
2018-03-03T08:29:22.418Z,59.90
2018-03-03T08:31:50.236Z,56.90
2018-03-03T08:34:18.007Z,59.87
2018-03-03T08:36:45.806Z,58.27
2018-03-03T08:39:13.604Z,60.70
2018-03-03T08:41:41.423Z,60.60
2018-03-03T08:44:10.136Z,64.70
2018-03-03T08:46:37.952Z,64.77
2018-03-03T08:49:05.752Z,62.33
2018-03-03T08:51:33.536Z,63.63
2018-03-03T08:54:01.287Z,63.20
2018-03-03T08:56:29.029Z,64.13
2018-03-03T08:58:56.813Z,60.67
2018-03-03T09:01:24.618Z,67.47
2018-03-03T09:03:52.400Z,61.73
2018-03-03T09:06:20.953Z,62.43
2018-03-03T09:08:48.906Z,74.43
2018-03-03T09:11:16.750Z,67.97
2018-03-03T09:13:45.132Z,69.57
2018-03-03T09:16:12.968Z,71.03
2018-03-03T09:18:40.952Z,75.93
2018-03-03T09:21:08.767Z,65.70
2018-03-03T09:23:36.529Z,76.63
2018-03-03T09:26:04.337Z,71.80
2018-03-03T09:28:32.873Z,71.57
2018-03-03T09:31:00.777Z,64.80
2018-03-03T09:33:28.738Z,71.93
2018-03-03T09:35:56.551Z,68.00
2018-03-03T09:38:25.064Z,74.30
2018-03-03T09:40:52.809Z,68.93
2018-03-03T09:43:20.605Z,68.50
2018-03-03T09:45:49.320Z,71.53
2018-03-03T09:48:17.119Z,68.73
2018-03-03T09:50:45.867Z,68.10
2018-03-03T09:53:13.646Z,69.73
2018-03-03T09:55:41.432Z,73.10
2018-03-03T09:58:09.167Z,73.50
2018-03-03T10:00:36.921Z,70.10
2018-03-03T10:03:04.712Z,68.50
2018-03-03T10:05:32.635Z,64.87
2018-03-03T10:08:00.415Z,73.97
2018-03-03T10:10:28.391Z,71.60
2018-03-03T10:12:56.265Z,70.27
2018-03-03T10:15:24.005Z,74.80
2018-03-03T10:17:51.816Z,70.97
2018-03-03T10:20:19.591Z,76.73
2018-03-03T10:22:47.327Z,81.40
2018-03-03T10:25:15.111Z,74.23
2018-03-03T10:27:43.080Z,77.43
2018-03-03T10:30:10.808Z,75.93
2018-03-03T10:32:38.552Z,74.20
2018-03-03T10:35:06.390Z,69.13
2018-03-03T10:37:34.136Z,67.67
2018-03-03T10:40:02.045Z,74.00
2018-03-03T10:42:29.829Z,62.73
2018-03-03T10:44:58.384Z,71.63
2018-03-03T10:47:26.359Z,65.80
2018-03-03T10:49:54.206Z,68.87
2018-03-03T10:52:22.013Z,64.40
2018-03-03T10:54:49.858Z,64.10
2018-03-03T10:57:17.705Z,67.20
2018-03-03T10:59:45.508Z,69.83
2018-03-03T11:02:13.417Z,75.30
2018-03-03T11:04:41.251Z,74.43
2018-03-03T11:07:09.833Z,75.83
2018-03-03T11:09:37.616Z,68.33
2018-03-03T11:12:06.127Z,72.93
2018-03-03T11:14:33.911Z,74.20
2018-03-03T11:17:01.638Z,74.10
2018-03-03T11:19:29.478Z,66.37
2018-03-03T11:21:57.258Z,72.30
2018-03-03T11:24:24.985Z,72.30
2018-03-03T11:26:52.770Z,69.70
2018-03-03T11:29:20.497Z,68.00
2018-03-03T11:31:48.268Z,81.40
2018-03-03T11:34:16.026Z,78.30
2018-03-03T11:36:43.791Z,78.10
2018-03-03T11:39:11.574Z,69.47
2018-03-03T11:41:39.339Z,80.20
2018-03-03T11:44:07.121Z,83.00
2018-03-03T11:46:34.932Z,80.57
2018-03-03T11:49:02.686Z,83.77
2018-03-03T11:51:30.483Z,80.20
2018-03-03T11:53:58.255Z,85.77
2018-03-03T11:56:26.028Z,89.03
2018-03-03T11:58:53.785Z,88.93
2018-03-03T12:01:21.563Z,92.83
2018-03-03T12:03:49.470Z,86.00
2018-03-03T12:06:17.210Z,86.77
2018-03-03T12:08:44.938Z,87.33
2018-03-03T12:11:13.419Z,90.50
2018-03-03T12:13:41.922Z,86.03
2018-03-03T12:16:09.721Z,90.87
2018-03-03T12:18:37.518Z,91.27
2018-03-03T12:21:05.318Z,89.43
2018-03-03T12:23:33.818Z,79.90
2018-03-03T12:26:01.554Z,85.70
2018-03-03T12:28:29.348Z,96.17
2018-03-03T12:30:57.178Z,93.70
2018-03-03T12:33:24.974Z,88.87
2018-03-03T12:35:52.706Z,94.50
2018-03-03T12:38:20.468Z,94.70
2018-03-03T12:40:48.338Z,99.20
2018-03-03T12:43:16.135Z,92.10
2018-03-03T12:45:44.690Z,83.67
2018-03-03T12:48:12.413Z,95.33
2018-03-03T12:50:40.164Z,94.23
2018-03-03T12:53:07.915Z,91.37
2018-03-03T12:55:35.648Z,92.93
2018-03-03T12:58:03.388Z,92.57
2018-03-03T13:00:31.126Z,92.00
2018-03-03T13:02:58.936Z,90.10
2018-03-03T13:05:26.722Z,73.10
2018-03-03T13:07:54.536Z,83.90
2018-03-03T13:10:22.300Z,80.60
2018-03-03T13:12:51.998Z,86.67
2018-03-03T13:15:19.735Z,84.60
2018-03-03T13:17:47.635Z,87.77
2018-03-03T13:20:15.406Z,83.37
2018-03-03T13:22:43.177Z,69.73
2018-03-03T13:25:10.993Z,70.37
2018-03-03T13:27:38.788Z,65.50
2018-03-03T13:30:06.535Z,64.53
2018-03-03T13:32:34.254Z,71.80
2018-03-03T13:35:02.037Z,59.60
2018-03-03T13:37:29.847Z,64.30
2018-03-03T13:39:57.633Z,70.87
2018-03-03T13:42:25.359Z,60.60
2018-03-03T13:44:53.137Z,52.10
2018-03-03T13:47:20.919Z,50.97
2018-03-03T13:49:48.644Z,49.67
2018-03-03T13:52:16.426Z,50.60
2018-03-03T13:54:44.263Z,53.10
2018-03-03T13:57:12.071Z,52.20
2018-03-03T13:59:39.842Z,54.53
2018-03-03T14:02:07.568Z,53.97
2018-03-03T14:04:35.338Z,55.23
2018-03-03T14:07:03.112Z,52.50
2018-03-03T14:09:30.910Z,51.93
2018-03-03T14:11:58.704Z,50.23
2018-03-03T14:14:26.477Z,49.73
2018-03-03T14:16:54.202Z,49.67
2018-03-03T14:19:22.222Z,48.97
2018-03-03T14:21:49.797Z,45.60
2018-03-03T14:24:17.575Z,49.70
2018-03-03T14:26:45.419Z,45.67
2018-03-03T14:29:13.806Z,48.97
2018-03-03T14:31:41.598Z,47.20
2018-03-03T14:34:09.390Z,45.70
2018-03-03T14:36:37.183Z,46.63
2018-03-03T14:39:04.992Z,48.30
2018-03-03T14:41:32.729Z,46.20
2018-03-03T14:44:00.531Z,44.63
2018-03-03T14:46:28.288Z,45.23
2018-03-03T14:48:56.022Z,42.17
2018-03-03T14:51:23.804Z,43.83
2018-03-03T14:53:51.539Z,43.83
2018-03-03T14:56:19.281Z,46.27
2018-03-03T14:58:47.066Z,40.97
2018-03-03T15:01:14.796Z,42.20
2018-03-03T15:03:42.547Z,45.67
2018-03-03T15:06:10.332Z,46.10
2018-03-03T15:08:38.122Z,41.70
2018-03-03T15:11:05.949Z,42.93
2018-03-03T15:13:33.749Z,43.03
2018-03-03T15:16:01.497Z,43.40
2018-03-03T15:18:29.295Z,42.27
2018-03-03T15:20:57.110Z,42.13
2018-03-03T15:23:24.882Z,41.60
2018-03-03T15:25:52.635Z,42.00
2018-03-03T15:28:20.415Z,39.53
2018-03-03T15:30:48.167Z,41.17
2018-03-03T15:33:15.965Z,43.40
2018-03-03T15:35:43.693Z,38.93
2018-03-03T15:38:11.426Z,36.90
2018-03-03T15:40:39.195Z,36.47
2018-03-03T15:43:06.931Z,33.47
2018-03-03T15:45:35.453Z,31.40
2018-03-03T15:48:03.963Z,33.13
2018-03-03T15:50:31.764Z,32.43
2018-03-03T15:52:59.534Z,32.67
2018-03-03T15:55:27.327Z,28.80
2018-03-03T15:57:55.120Z,28.93
2018-03-03T16:00:22.938Z,36.10
2018-03-03T16:02:50.728Z,29.30
2018-03-03T16:05:18.501Z,32.07
2018-03-03T16:07:46.230Z,28.83
2018-03-03T16:10:13.993Z,30.10
2018-03-03T16:12:41.873Z,31.40
2018-03-03T16:15:09.653Z,31.13
2018-03-03T16:17:37.418Z,33.07
2018-03-03T16:20:05.254Z,26.57
2018-03-03T16:22:33.007Z,34.23
2018-03-03T16:25:00.779Z,26.70
2018-03-03T16:27:28.561Z,27.70
2018-03-03T16:29:56.308Z,27.80
2018-03-03T16:32:24.032Z,31.37
2018-03-03T16:34:51.756Z,30.63
2018-03-03T16:37:19.525Z,28.53
2018-03-03T16:39:47.272Z,31.17
2018-03-03T16:42:15.086Z,29.33
2018-03-03T16:44:42.835Z,28.43
2018-03-03T16:47:10.560Z,25.03
2018-03-03T16:49:39.079Z,27.60
2018-03-03T16:52:06.924Z,26.60
2018-03-03T16:54:35.606Z,29.73
2018-03-03T16:57:04.966Z,26.37
2018-03-03T16:59:32.843Z,31.33
2018-03-03T17:02:00.617Z,26.33
2018-03-03T17:04:28.394Z,25.93
2018-03-03T17:06:56.128Z,25.67
2018-03-03T17:09:24.087Z,25.73
2018-03-03T17:11:51.849Z,32.50
2018-03-03T17:14:19.665Z,28.87
2018-03-03T17:16:47.450Z,26.70
2018-03-03T17:19:15.235Z,26.80
2018-03-03T17:21:42.975Z,29.80
2018-03-03T17:24:10.796Z,29.57
2018-03-03T17:26:39.284Z,24.60
2018-03-03T17:29:07.048Z,25.30
2018-03-03T17:31:34.859Z,21.97
2018-03-03T17:34:03.488Z,24.07
2018-03-03T17:36:31.219Z,25.63
2018-03-03T17:38:59.059Z,23.00
2018-03-03T17:41:26.831Z,23.80
2018-03-03T17:43:54.629Z,27.03
2018-03-03T17:46:22.411Z,23.63
2018-03-03T17:48:50.285Z,27.70
2018-03-03T17:51:18.047Z,27.73
2018-03-03T17:53:46.035Z,28.93
2018-03-03T17:56:13.854Z,24.87
2018-03-03T17:58:41.606Z,26.97
2018-03-03T18:01:09.347Z,29.00
2018-03-03T18:03:37.091Z,30.57
2018-03-03T18:06:04.892Z,27.13
2018-03-03T18:08:39.573Z,27.80
2018-03-03T18:11:08.789Z,28.70
2018-03-03T18:13:36.533Z,27.83
2018-03-03T18:16:04.332Z,32.03
2018-03-03T18:18:32.945Z,27.90
2018-03-03T18:21:00.740Z,29.47
2018-03-03T18:23:28.460Z,27.57
2018-03-03T18:25:56.183Z,28.57
2018-03-03T18:28:23.935Z,28.90
2018-03-03T18:30:52.434Z,32.03
2018-03-03T18:33:20.185Z,30.07
2018-03-03T18:35:47.916Z,34.37
2018-03-03T18:38:15.676Z,30.67
2018-03-03T18:40:43.462Z,30.57
2018-03-03T18:43:11.269Z,35.77
2018-03-03T18:45:39.054Z,33.20
2018-03-03T18:48:06.854Z,31.13
2018-03-03T18:50:34.585Z,38.60
2018-03-03T18:53:02.369Z,35.03
2018-03-03T18:55:30.139Z,36.10
2018-03-03T18:57:57.927Z,36.80
2018-03-03T19:00:25.678Z,37.57
2018-03-03T19:02:54.254Z,34.93
2018-03-03T19:05:22.048Z,36.70
2018-03-03T19:07:49.794Z,36.20
2018-03-03T19:10:17.528Z,36.37
2018-03-03T19:12:45.303Z,38.20
2018-03-03T19:15:13.084Z,41.40
2018-03-03T19:17:40.864Z,40.20
2018-03-03T19:20:08.615Z,37.17
2018-03-03T19:22:36.358Z,39.13
2018-03-03T19:25:04.132Z,39.90
2018-03-03T19:27:31.923Z,41.57
2018-03-03T19:29:59.672Z,38.33
2018-03-03T19:32:27.419Z,41.97
2018-03-03T19:34:55.214Z,45.97
2018-03-03T19:37:23.049Z,42.00
2018-03-03T19:39:51.545Z,39.90
2018-03-03T19:42:19.327Z,43.27
2018-03-03T19:44:47.065Z,43.40
2018-03-03T19:47:14.901Z,40.17
2018-03-03T19:49:43.741Z,45.70
2018-03-03T19:52:11.514Z,43.50
2018-03-03T19:54:39.236Z,41.40
2018-03-03T19:57:07.012Z,43.73
2018-03-03T19:59:34.743Z,42.33
2018-03-03T20:02:02.569Z,45.60
2018-03-03T20:04:30.372Z,46.00
2018-03-03T20:06:58.166Z,40.83
2018-03-03T20:09:25.977Z,42.07
2018-03-03T20:11:53.712Z,41.90
2018-03-03T20:14:21.484Z,42.37
2018-03-03T20:16:49.278Z,39.53
2018-03-03T20:19:17.004Z,38.07
2018-03-03T20:21:44.793Z,40.03
2018-03-03T20:24:12.536Z,41.10
2018-03-03T20:26:40.293Z,40.53
2018-03-03T20:29:08.047Z,40.93
2018-03-03T20:31:35.801Z,43.23
2018-03-03T20:34:03.611Z,40.87
2018-03-03T20:36:31.356Z,43.00
2018-03-03T20:38:59.090Z,36.00
2018-03-03T20:41:26.826Z,36.50
2018-03-03T20:43:54.614Z,37.30
2018-03-03T20:46:22.365Z,35.37
2018-03-03T20:48:50.099Z,38.80
2018-03-03T20:51:17.827Z,35.30
2018-03-03T20:53:45.601Z,36.27
2018-03-03T20:56:13.334Z,33.00
2018-03-03T20:58:41.161Z,33.47
2018-03-03T21:01:08.952Z,32.43
2018-03-03T21:03:36.752Z,37.77
2018-03-03T21:06:04.490Z,35.07
2018-03-03T21:08:32.251Z,39.20
2018-03-03T21:11:00.226Z,39.63
2018-03-03T21:13:28.811Z,36.10
2018-03-03T21:15:56.588Z,39.07
2018-03-03T21:18:24.338Z,34.97
2018-03-03T21:20:52.083Z,36.50
2018-03-03T21:23:19.825Z,37.63
2018-03-03T21:25:47.573Z,38.20
2018-03-03T21:28:15.413Z,39.30
2018-03-03T21:30:43.126Z,34.97
2018-03-03T21:33:10.880Z,38.47
2018-03-03T21:35:38.630Z,37.50
2018-03-03T21:38:06.418Z,37.00
2018-03-03T21:40:34.175Z,40.17
2018-03-03T21:43:01.946Z,37.20
2018-03-03T21:45:29.698Z,41.23
2018-03-03T21:47:57.436Z,35.00
2018-03-03T21:50:25.179Z,37.67
2018-03-03T21:52:52.992Z,41.23
2018-03-03T21:55:20.728Z,38.37
2018-03-03T21:57:48.513Z,39.30
2018-03-03T22:00:16.320Z,38.87
2018-03-03T22:02:44.052Z,36.57
2018-03-03T22:05:11.862Z,39.53
2018-03-03T22:07:39.592Z,35.80
2018-03-03T22:10:08.854Z,38.10
2018-03-03T22:12:36.599Z,39.67
2018-03-03T22:15:04.473Z,41.23
2018-03-03T22:17:32.258Z,36.03
2018-03-03T22:19:59.998Z,41.10
2018-03-03T22:22:27.727Z,38.40
2018-03-03T22:24:55.528Z,40.47
2018-03-03T22:27:23.536Z,38.87
2018-03-03T22:29:51.289Z,36.77
2018-03-03T22:32:19.047Z,40.03
2018-03-03T22:34:46.845Z,35.03
2018-03-03T22:37:14.666Z,37.23
2018-03-03T22:39:42.466Z,37.10
2018-03-03T22:42:11.121Z,38.80
2018-03-03T22:44:38.909Z,36.10
2018-03-03T22:47:06.640Z,39.43
2018-03-03T22:49:34.373Z,39.80
2018-03-03T22:52:02.142Z,40.00
2018-03-03T22:54:29.895Z,37.03
2018-03-03T22:56:57.670Z,36.93
2018-03-03T22:59:25.409Z,37.80
2018-03-03T23:01:53.184Z,39.30
2018-03-03T23:04:20.908Z,35.40
2018-03-03T23:06:48.718Z,35.63
2018-03-03T23:09:16.545Z,40.23
2018-03-03T23:11:44.337Z,36.80
2018-03-03T23:14:12.169Z,36.90
2018-03-03T23:16:39.920Z,32.93
2018-03-03T23:19:07.703Z,38.40
2018-03-03T23:21:35.520Z,39.87
2018-03-03T23:24:03.324Z,38.70
2018-03-03T23:26:31.152Z,36.47
2018-03-03T23:28:58.899Z,35.53
2018-03-03T23:31:26.630Z,34.20
2018-03-03T23:33:54.438Z,39.37
2018-03-03T23:36:22.238Z,33.57
2018-03-03T23:38:49.982Z,37.10
2018-03-03T23:41:17.782Z,34.07
2018-03-03T23:43:45.524Z,31.70
2018-03-03T23:46:13.333Z,36.60
2018-03-03T23:48:41.056Z,34.63
2018-03-03T23:51:08.798Z,34.80
2018-03-03T23:53:36.566Z,34.93
2018-03-03T23:56:04.347Z,34.63
2018-03-03T23:58:32.099Z,40.07
